Balta, North Dakota
Current Conditions -  °F | °C
As of 2:55 AM on Sunday 26 Oct 2014 (Local Time) from KRUG Reporting Station
Clear Clear  
Wind Chill: 38°   Ceiling: Unl
Heat Index: 45°   Visibility: 10mi
Dew Point: 28°   Wind: 13mph
Humidity: 53%   Direction: 130°SE
Pressure: 29.85"   Gusts: 18mph
Location:  48.17°N, 100.04°W
Report Text: KRUG 260755Z AUTO 13011G16KT 10SM CLR 07/M02 A2985 RMK AO2
Loading
Personal Weather Stations






























Interactive Weather Map
Tropical Storm Tracking
New forecast layout! Learn more

10-Day Weather Forecast

Advertisements
Track Severe Weather on mobile